Decoded Metar for OIKB (BANDAR ABBAS in IRAN) (IATA:BND) | Meteo·Mobile Aviation Weather
aviador You're here:

OIKB Decoded Metar

BANDAR ABBAS in IRAN
Report Time2018-12-11 09:30:00
UTC Time2018-12-11 09:38:05
Flight Rules vfr VFR
Wind190° at 08 kt
W.Decomp.*RWY 21: 7.5 kt HW 2.9 kt LCW
W.Rank190° ranks 1
Current wind is below 190° avg. (9.9)
Visibility9999 m
Phenomena:N/A
Clouds:N/A
Expected CloudBase > 4,800 ft AGL from Temp-Dew spread
CeilingNone
Temp26°C (ISA +11)
Dew Point14°C (48% RH)
AAT24.4°C
QNH1013 hPa
Density Alt1,526 ft
Elevation33 ft
Report Wrong Elevation
Raw Report
METAR OIKB 110930Z 19008KT CAVOK 26/14 Q1013 A2993=

Extra information for OIKB:More info

Metar Taf Metar & Taf Last 4 Metars F.Rules Stats Wind Profile Meteogram Temp Stats Airport Information Weather charts Add Link Nearby VenuesMetar ALERT Operation Metar Decoded Social comments